Agra, Kansas
Current Conditions -  °F | °C
As of 12:53 PM on Saturday 20 Dec 2014 (Local Time) from KHLC Reporting Station
Clear Clear  
Wind Chill: 11°   Ceiling: Unl
Heat Index: 11°   Visibility: 10mi
Dew Point:   Wind: 3mph
Humidity: 48%   Direction: NA
Pressure: 30.01"   Gusts: NA
Location:  39.76°N, 99.12°W
Report Text: KHLC 201853Z AUTO VRB03KT 10SM CLR 11/00 A3001 RMK AO2 SLP169 T01060000
Loading
Personal Weather Stations






























Interactive Weather Map New forecast layout! Learn more

10-Day Weather Forecast

Advertisements
Track Severe Weather on mobile